sensor_id;sensor_type;location;lat;lon;timestamp;temperature;humidity
45283;DHT22;31023;44.994;1.796;2022-08-19T00:02:21;17.90;99.90
45283;DHT22;31023;44.994;1.796;2022-08-19T00:04:47;17.80;99.90
45283;DHT22;31023;44.994;1.796;2022-08-19T00:07:17;17.80;99.90
45283;DHT22;31023;44.994;1.796;2022-08-19T00:09:43;17.70;99.90
45283;DHT22;31023;44.994;1.796;2022-08-19T00:12:08;17.70;99.90
45283;DHT22;31023;44.994;1.796;2022-08-19T00:14:35;17.80;99.90
45283;DHT22;31023;44.994;1.796;2022-08-19T00:17:00;17.80;99.90
45283;DHT22;31023;44.994;1.796;2022-08-19T00:19:26;17.60;99.90
45283;DHT22;31023;44.994;1.796;2022-08-19T00:21:52;17.60;99.90
45283;DHT22;31023;44.994;1.796;2022-08-19T00:24:17;17.70;99.90
45283;DHT22;31023;44.994;1.796;2022-08-19T00:26:44;17.60;99.90
45283;DHT22;31023;44.994;1.796;2022-08-19T00:29:11;17.60;99.90
45283;DHT22;31023;44.994;1.796;2022-08-19T00:31:37;17.70;99.90
45283;DHT22;31023;44.994;1.796;2022-08-19T00:34:03;17.80;99.90
45283;DHT22;31023;44.994;1.796;2022-08-19T00:36:29;17.80;99.90
45283;DHT22;31023;44.994;1.796;2022-08-19T00:38:55;17.80;99.90
45283;DHT22;31023;44.994;1.796;2022-08-19T00:41:21;17.80;99.90
45283;DHT22;31023;44.994;1.796;2022-08-19T00:46:23;18.00;99.90
45283;DHT22;31023;44.994;1.796;2022-08-19T00:48:48;18.10;99.90
45283;DHT22;31023;44.994;1.796;2022-08-19T00:51:14;17.90;99.90
45283;DHT22;31023;44.994;1.796;2022-08-19T00:53:39;17.90;99.90
45283;DHT22;31023;44.994;1.796;2022-08-19T00:56:05;17.90;99.90
45283;DHT22;31023;44.994;1.796;2022-08-19T00:58:32;18.00;99.90
45283;DHT22;31023;44.994;1.796;2022-08-19T01:00:58;18.00;99.90
45283;DHT22;31023;44.994;1.796;2022-08-19T01:03:24;18.10;99.90
45283;DHT22;31023;44.994;1.796;2022-08-19T01:05:50;18.10;99.90
45283;DHT22;31023;44.994;1.796;2022-08-19T01:08:17;18.10;99.90
45283;DHT22;31023;44.994;1.796;2022-08-19T01:10:43;18.10;99.90
45283;DHT22;31023;44.994;1.796;2022-08-19T01:13:10;18.10;99.90
45283;DHT22;31023;44.994;1.796;2022-08-19T01:15:41;18.10;99.90
45283;DHT22;31023;44.994;1.796;2022-08-19T01:18:09;18.20;99.90
45283;DHT22;31023;44.994;1.796;2022-08-19T01:20:35;18.10;99.90
45283;DHT22;31023;44.994;1.796;2022-08-19T01:23:01;18.20;99.90
45283;DHT22;31023;44.994;1.796;2022-08-19T01:25:28;18.20;99.90
45283;DHT22;31023;44.994;1.796;2022-08-19T01:27:54;18.30;99.90
45283;DHT22;31023;44.994;1.796;2022-08-19T01:30:25;18.30;99.90
45283;DHT22;31023;44.994;1.796;2022-08-19T01:32:52;18.30;99.90
45283;DHT22;31023;44.994;1.796;2022-08-19T01:35:17;18.30;99.90
45283;DHT22;31023;44.994;1.796;2022-08-19T01:37:47;18.40;99.90
45283;DHT22;31023;44.994;1.796;2022-08-19T01:40:13;18.40;99.90
45283;DHT22;31023;44.994;1.796;2022-08-19T01:42:39;18.40;99.90
45283;DHT22;31023;44.994;1.796;2022-08-19T01:45:05;18.30;99.90
45283;DHT22;31023;44.994;1.796;2022-08-19T01:47:33;18.30;99.90
45283;DHT22;31023;44.994;1.796;2022-08-19T01:49:59;18.30;99.90
45283;DHT22;31023;44.994;1.796;2022-08-19T01:52:25;18.30;99.90
45283;DHT22;31023;44.994;1.796;2022-08-19T01:54:51;18.30;99.90
45283;DHT22;31023;44.994;1.796;2022-08-19T01:57:16;18.20;99.90
45283;DHT22;31023;44.994;1.796;2022-08-19T01:59:42;18.10;99.90
45283;DHT22;31023;44.994;1.796;2022-08-19T02:02:08;18.00;99.90
45283;DHT22;31023;44.994;1.796;2022-08-19T02:04:34;18.00;99.90
45283;DHT22;31023;44.994;1.796;2022-08-19T02:07:00;18.10;99.90
45283;DHT22;31023;44.994;1.796;2022-08-19T02:09:26;18.20;99.90
45283;DHT22;31023;44.994;1.796;2022-08-19T02:11:52;18.20;99.90
45283;DHT22;31023;44.994;1.796;2022-08-19T02:14:18;18.30;99.90
45283;DHT22;31023;44.994;1.796;2022-08-19T02:16:44;18.30;99.90
45283;DHT22;31023;44.994;1.796;2022-08-19T02:19:09;18.30;99.90
45283;DHT22;31023;44.994;1.796;2022-08-19T02:21:35;18.40;99.90
45283;DHT22;31023;44.994;1.796;2022-08-19T02:24:01;18.30;99.90
45283;DHT22;31023;44.994;1.796;2022-08-19T02:26:26;18.30;99.90
45283;DHT22;31023;44.994;1.796;2022-08-19T02:28:52;18.20;99.90
45283;DHT22;31023;44.994;1.796;2022-08-19T02:31:19;18.30;99.90
45283;DHT22;31023;44.994;1.796;2022-08-19T02:33:45;18.30;99.90
45283;DHT22;31023;44.994;1.796;2022-08-19T02:36:12;18.20;99.90
45283;DHT22;31023;44.994;1.796;2022-08-19T02:38:38;18.30;99.90
45283;DHT22;31023;44.994;1.796;2022-08-19T02:41:06;18.30;99.90
45283;DHT22;31023;44.994;1.796;2022-08-19T02:43:32;18.40;99.90
45283;DHT22;31023;44.994;1.796;2022-08-19T02:46:01;18.30;99.90
45283;DHT22;31023;44.994;1.796;2022-08-19T02:48:27;18.40;99.90
45283;DHT22;31023;44.994;1.796;2022-08-19T02:50:53;18.30;99.90
45283;DHT22;31023;44.994;1.796;2022-08-19T02:53:22;18.30;99.90
45283;DHT22;31023;44.994;1.796;2022-08-19T02:55:48;18.20;99.90
45283;DHT22;31023;44.994;1.796;2022-08-19T02:58:14;18.40;99.90
45283;DHT22;31023;44.994;1.796;2022-08-19T03:00:46;18.30;99.90
45283;DHT22;31023;44.994;1.796;2022-08-19T03:03:13;18.30;99.90
45283;DHT22;31023;44.994;1.796;2022-08-19T03:05:39;18.30;99.90
45283;DHT22;31023;44.994;1.796;2022-08-19T03:08:05;18.20;99.90
45283;DHT22;31023;44.994;1.796;2022-08-19T03:10:31;18.30;99.90
45283;DHT22;31023;44.994;1.796;2022-08-19T03:12:57;18.40;99.90
45283;DHT22;31023;44.994;1.796;2022-08-19T03:15:22;18.20;99.90
45283;DHT22;31023;44.994;1.796;2022-08-19T03:17:48;18.30;99.90
45283;DHT22;31023;44.994;1.796;2022-08-19T03:20:13;18.40;99.90
45283;DHT22;31023;44.994;1.796;2022-08-19T03:22:39;18.40;99.90
45283;DHT22;31023;44.994;1.796;2022-08-19T03:25:05;18.30;99.90
45283;DHT22;31023;44.994;1.796;2022-08-19T03:27:30;18.30;99.90
45283;DHT22;31023;44.994;1.796;2022-08-19T03:29:56;18.30;99.90
45283;DHT22;31023;44.994;1.796;2022-08-19T03:32:22;18.30;99.90
45283;DHT22;31023;44.994;1.796;2022-08-19T03:34:47;18.30;99.90
45283;DHT22;31023;44.994;1.796;2022-08-19T03:37:13;18.30;99.90
45283;DHT22;31023;44.994;1.796;2022-08-19T03:39:39;18.30;99.90
45283;DHT22;31023;44.994;1.796;2022-08-19T03:42:05;18.30;99.90
45283;DHT22;31023;44.994;1.796;2022-08-19T03:44:31;18.30;99.90
45283;DHT22;31023;44.994;1.796;2022-08-19T03:46:58;18.30;99.90
45283;DHT22;31023;44.994;1.796;2022-08-19T03:49:28;18.30;99.90
45283;DHT22;31023;44.994;1.796;2022-08-19T03:51:55;18.20;99.90
45283;DHT22;31023;44.994;1.796;2022-08-19T03:54:22;18.20;99.90
45283;DHT22;31023;44.994;1.796;2022-08-19T03:56:49;18.20;99.90
45283;DHT22;31023;44.994;1.796;2022-08-19T03:59:16;18.20;99.90
45283;DHT22;31023;44.994;1.796;2022-08-19T04:01:42;18.10;99.90
45283;DHT22;31023;44.994;1.796;2022-08-19T04:04:08;18.00;99.90
45283;DHT22;31023;44.994;1.796;2022-08-19T04:06:35;18.00;99.90
45283;DHT22;31023;44.994;1.796;2022-08-19T04:09:02;18.10;99.90
45283;DHT22;31023;44.994;1.796;2022-08-19T04:11:30;18.10;99.90
45283;DHT22;31023;44.994;1.796;2022-08-19T04:13:56;17.90;99.90
45283;DHT22;31023;44.994;1.796;2022-08-19T04:16:23;18.00;99.90
45283;DHT22;31023;44.994;1.796;2022-08-19T04:18:49;17.90;99.90
45283;DHT22;31023;44.994;1.796;2022-08-19T04:21:18;18.00;99.90
45283;DHT22;31023;44.994;1.796;2022-08-19T04:23:44;17.90;99.90
45283;DHT22;31023;44.994;1.796;2022-08-19T04:26:14;18.00;99.90
45283;DHT22;31023;44.994;1.796;2022-08-19T04:28:39;17.90;99.90
45283;DHT22;31023;44.994;1.796;2022-08-19T04:31:05;17.90;99.90
45283;DHT22;31023;44.994;1.796;2022-08-19T04:33:30;17.90;99.90
45283;DHT22;31023;44.994;1.796;2022-08-19T04:35:56;17.90;99.90
45283;DHT22;31023;44.994;1.796;2022-08-19T04:38:23;17.80;99.90
45283;DHT22;31023;44.994;1.796;2022-08-19T04:40:50;17.90;99.90
45283;DHT22;31023;44.994;1.796;2022-08-19T04:43:34;18.00;99.90
45283;DHT22;31023;44.994;1.796;2022-08-19T04:46:04;18.00;99.90
45283;DHT22;31023;44.994;1.796;2022-08-19T04:48:30;17.80;99.90
45283;DHT22;31023;44.994;1.796;2022-08-19T04:50:57;17.70;99.90
45283;DHT22;31023;44.994;1.796;2022-08-19T04:53:26;17.80;99.90
45283;DHT22;31023;44.994;1.796;2022-08-19T04:55:57;17.80;99.90
45283;DHT22;31023;44.994;1.796;2022-08-19T04:58:24;17.90;99.90
45283;DHT22;31023;44.994;1.796;2022-08-19T05:00:50;17.80;99.90
45283;DHT22;31023;44.994;1.796;2022-08-19T05:03:15;17.70;99.90
45283;DHT22;31023;44.994;1.796;2022-08-19T05:05:42;17.80;99.90
45283;DHT22;31023;44.994;1.796;2022-08-19T05:08:08;17.80;99.90
45283;DHT22;31023;44.994;1.796;2022-08-19T05:10:35;17.80;99.90
45283;DHT22;31023;44.994;1.796;2022-08-19T05:13:00;17.80;99.90
45283;DHT22;31023;44.994;1.796;2022-08-19T05:15:26;17.70;99.90
45283;DHT22;31023;44.994;1.796;2022-08-19T05:17:51;17.80;99.90
45283;DHT22;31023;44.994;1.796;2022-08-19T05:20:37;17.80;99.90
45283;DHT22;31023;44.994;1.796;2022-08-19T05:23:21;17.80;99.90
45283;DHT22;31023;44.994;1.796;2022-08-19T05:25:47;18.00;99.90
45283;DHT22;31023;44.994;1.796;2022-08-19T05:28:12;18.00;99.90
45283;DHT22;31023;44.994;1.796;2022-08-19T05:30:38;18.00;99.90
45283;DHT22;31023;44.994;1.796;2022-08-19T05:33:06;18.10;99.90
45283;DHT22;31023;44.994;1.796;2022-08-19T05:35:35;18.00;99.90
45283;DHT22;31023;44.994;1.796;2022-08-19T05:38:01;18.00;99.90
45283;DHT22;31023;44.994;1.796;2022-08-19T05:40:26;17.90;99.90
45283;DHT22;31023;44.994;1.796;2022-08-19T05:42:52;17.90;99.90
45283;DHT22;31023;44.994;1.796;2022-08-19T05:45:18;17.90;99.90
45283;DHT22;31023;44.994;1.796;2022-08-19T05:47:44;18.00;99.90
45283;DHT22;31023;44.994;1.796;2022-08-19T05:50:10;17.90;99.90
45283;DHT22;31023;44.994;1.796;2022-08-19T05:52:36;17.80;99.90
45283;DHT22;31023;44.994;1.796;2022-08-19T05:55:03;17.90;99.90
45283;DHT22;31023;44.994;1.796;2022-08-19T05:57:29;17.90;99.90
45283;DHT22;31023;44.994;1.796;2022-08-19T05:59:55;17.90;99.90
45283;DHT22;31023;44.994;1.796;2022-08-19T06:02:22;18.00;99.90
45283;DHT22;31023;44.994;1.796;2022-08-19T06:04:47;18.00;99.90
45283;DHT22;31023;44.994;1.796;2022-08-19T06:07:13;18.00;99.90
45283;DHT22;31023;44.994;1.796;2022-08-19T06:09:39;17.90;99.90
45283;DHT22;31023;44.994;1.796;2022-08-19T06:12:05;18.00;99.90
45283;DHT22;31023;44.994;1.796;2022-08-19T06:14:32;18.10;99.90
45283;DHT22;31023;44.994;1.796;2022-08-19T06:17:00;17.90;99.90
45283;DHT22;31023;44.994;1.796;2022-08-19T06:19:27;18.00;99.90
45283;DHT22;31023;44.994;1.796;2022-08-19T06:21:54;18.10;99.90
45283;DHT22;31023;44.994;1.796;2022-08-19T06:24:22;18.00;99.90
45283;DHT22;31023;44.994;1.796;2022-08-19T06:26:51;18.00;99.90
45283;DHT22;31023;44.994;1.796;2022-08-19T06:29:18;18.20;99.90
45283;DHT22;31023;44.994;1.796;2022-08-19T06:31:45;18.10;99.90
45283;DHT22;31023;44.994;1.796;2022-08-19T06:34:11;18.10;99.90
45283;DHT22;31023;44.994;1.796;2022-08-19T06:36:38;18.00;99.90
45283;DHT22;31023;44.994;1.796;2022-08-19T06:39:16;18.10;99.90
45283;DHT22;31023;44.994;1.796;2022-08-19T06:41:43;18.00;99.90
45283;DHT22;31023;44.994;1.796;2022-08-19T06:44:09;17.90;99.90
45283;DHT22;31023;44.994;1.796;2022-08-19T06:46:35;17.90;99.90
45283;DHT22;31023;44.994;1.796;2022-08-19T06:49:00;17.90;99.90
45283;DHT22;31023;44.994;1.796;2022-08-19T06:51:26;17.90;99.90
45283;DHT22;31023;44.994;1.796;2022-08-19T06:53:52;17.90;99.90
45283;DHT22;31023;44.994;1.796;2022-08-19T06:56:19;18.00;99.90
45283;DHT22;31023;44.994;1.796;2022-08-19T06:58:46;18.10;99.90
45283;DHT22;31023;44.994;1.796;2022-08-19T07:01:12;18.30;99.90
45283;DHT22;31023;44.994;1.796;2022-08-19T07:03:38;18.20;99.90
45283;DHT22;31023;44.994;1.796;2022-08-19T07:06:05;18.30;99.90
45283;DHT22;31023;44.994;1.796;2022-08-19T07:08:31;18.70;99.90
45283;DHT22;31023;44.994;1.796;2022-08-19T07:10:57;18.50;99.90
45283;DHT22;31023;44.994;1.796;2022-08-19T07:13:23;18.60;99.90
45283;DHT22;31023;44.994;1.796;2022-08-19T07:15:49;18.80;99.90
45283;DHT22;31023;44.994;1.796;2022-08-19T07:18:16;18.60;99.90
45283;DHT22;31023;44.994;1.796;2022-08-19T07:20:42;18.70;99.90
45283;DHT22;31023;44.994;1.796;2022-08-19T07:23:08;19.10;99.90
45283;DHT22;31023;44.994;1.796;2022-08-19T07:25:35;19.00;99.90
45283;DHT22;31023;44.994;1.796;2022-08-19T07:28:01;18.80;99.90
45283;DHT22;31023;44.994;1.796;2022-08-19T07:30:27;18.90;99.90
45283;DHT22;31023;44.994;1.796;2022-08-19T07:32:52;19.00;99.90
45283;DHT22;31023;44.994;1.796;2022-08-19T07:35:18;18.80;99.90
45283;DHT22;31023;44.994;1.796;2022-08-19T07:37:45;18.70;99.90
45283;DHT22;31023;44.994;1.796;2022-08-19T07:40:10;18.60;99.90
45283;DHT22;31023;44.994;1.796;2022-08-19T07:42:36;18.60;99.90
45283;DHT22;31023;44.994;1.796;2022-08-19T07:45:02;18.50;99.90
45283;DHT22;31023;44.994;1.796;2022-08-19T07:47:28;18.50;99.90
45283;DHT22;31023;44.994;1.796;2022-08-19T07:49:53;18.50;99.90
45283;DHT22;31023;44.994;1.796;2022-08-19T07:52:19;18.50;99.90
45283;DHT22;31023;44.994;1.796;2022-08-19T07:54:45;18.60;99.90
45283;DHT22;31023;44.994;1.796;2022-08-19T07:57:10;18.90;99.90
45283;DHT22;31023;44.994;1.796;2022-08-19T07:59:37;18.90;99.90
45283;DHT22;31023;44.994;1.796;2022-08-19T08:02:02;18.90;99.90
45283;DHT22;31023;44.994;1.796;2022-08-19T08:04:29;18.70;99.90
45283;DHT22;31023;44.994;1.796;2022-08-19T08:07:13;18.80;99.90
45283;DHT22;31023;44.994;1.796;2022-08-19T08:09:58;18.80;99.90
45283;DHT22;31023;44.994;1.796;2022-08-19T08:12:26;18.80;99.90
45283;DHT22;31023;44.994;1.796;2022-08-19T08:14:58;18.90;99.90
45283;DHT22;31023;44.994;1.796;2022-08-19T08:17:25;19.00;99.90
45283;DHT22;31023;44.994;1.796;2022-08-19T08:19:51;19.00;99.90
45283;DHT22;31023;44.994;1.796;2022-08-19T08:22:18;19.00;99.90
45283;DHT22;31023;44.994;1.796;2022-08-19T08:25:04;18.80;99.90
45283;DHT22;31023;44.994;1.796;2022-08-19T08:27:29;18.80;99.90
45283;DHT22;31023;44.994;1.796;2022-08-19T08:29:56;19.00;99.90
45283;DHT22;31023;44.994;1.796;2022-08-19T08:32:22;19.10;99.90
45283;DHT22;31023;44.994;1.796;2022-08-19T08:34:48;19.50;99.90
45283;DHT22;31023;44.994;1.796;2022-08-19T08:37:13;19.80;99.90
45283;DHT22;31023;44.994;1.796;2022-08-19T08:39:39;20.10;99.90
45283;DHT22;31023;44.994;1.796;2022-08-19T08:42:12;19.90;99.90
45283;DHT22;31023;44.994;1.796;2022-08-19T08:47:12;19.50;99.90
45283;DHT22;31023;44.994;1.796;2022-08-19T08:52:18;19.00;99.90
45283;DHT22;31023;44.994;1.796;2022-08-19T08:54:46;19.10;99.90
45283;DHT22;31023;44.994;1.796;2022-08-19T08:57:14;19.00;99.90
45283;DHT22;31023;44.994;1.796;2022-08-19T08:59:41;19.20;99.90
45283;DHT22;31023;44.994;1.796;2022-08-19T09:02:08;19.00;99.90
45283;DHT22;31023;44.994;1.796;2022-08-19T09:04:35;19.10;99.90
45283;DHT22;31023;44.994;1.796;2022-08-19T09:07:21;19.20;99.90
45283;DHT22;31023;44.994;1.796;2022-08-19T09:09:49;19.20;99.90
45283;DHT22;31023;44.994;1.796;2022-08-19T09:15:06;19.70;99.90
45283;DHT22;31023;44.994;1.796;2022-08-19T09:17:33;19.80;99.90
45283;DHT22;31023;44.994;1.796;2022-08-19T09:22:30;19.60;99.90
45283;DHT22;31023;44.994;1.796;2022-08-19T09:24:55;19.50;99.90
45283;DHT22;31023;44.994;1.796;2022-08-19T09:27:21;19.50;99.90
45283;DHT22;31023;44.994;1.796;2022-08-19T09:29:49;19.70;99.90
45283;DHT22;31023;44.994;1.796;2022-08-19T09:32:15;19.90;99.90
45283;DHT22;31023;44.994;1.796;2022-08-19T09:34:41;19.80;99.90
45283;DHT22;31023;44.994;1.796;2022-08-19T09:37:06;19.80;99.90
45283;DHT22;31023;44.994;1.796;2022-08-19T09:39:32;19.70;99.90
45283;DHT22;31023;44.994;1.796;2022-08-19T09:41:58;19.50;99.90
45283;DHT22;31023;44.994;1.796;2022-08-19T09:44:23;19.70;99.90
45283;DHT22;31023;44.994;1.796;2022-08-19T09:46:49;19.70;99.90
45283;DHT22;31023;44.994;1.796;2022-08-19T09:49:16;19.70;99.90
45283;DHT22;31023;44.994;1.796;2022-08-19T09:51:42;19.70;99.90
45283;DHT22;31023;44.994;1.796;2022-08-19T09:54:08;19.50;99.90
45283;DHT22;31023;44.994;1.796;2022-08-19T09:56:34;19.70;99.90
45283;DHT22;31023;44.994;1.796;2022-08-19T09:59:00;19.80;99.90
45283;DHT22;31023;44.994;1.796;2022-08-19T10:01:27;19.80;99.90
45283;DHT22;31023;44.994;1.796;2022-08-19T10:03:53;19.80;99.90
45283;DHT22;31023;44.994;1.796;2022-08-19T10:06:20;20.10;99.90
45283;DHT22;31023;44.994;1.796;2022-08-19T10:08:46;20.40;99.90
45283;DHT22;31023;44.994;1.796;2022-08-19T10:11:12;20.80;99.90
45283;DHT22;31023;44.994;1.796;2022-08-19T10:13:39;20.70;99.90
45283;DHT22;31023;44.994;1.796;2022-08-19T10:16:06;20.80;99.90
45283;DHT22;31023;44.994;1.796;2022-08-19T10:18:33;21.30;99.90
45283;DHT22;31023;44.994;1.796;2022-08-19T10:21:07;21.60;99.90
45283;DHT22;31023;44.994;1.796;2022-08-19T10:23:34;21.80;99.90
45283;DHT22;31023;44.994;1.796;2022-08-19T10:26:00;22.20;99.90
45283;DHT22;31023;44.994;1.796;2022-08-19T10:28:26;21.90;99.90
45283;DHT22;31023;44.994;1.796;2022-08-19T10:30:51;21.70;99.90
45283;DHT22;31023;44.994;1.796;2022-08-19T10:33:17;21.60;99.90
45283;DHT22;31023;44.994;1.796;2022-08-19T10:35:43;21.60;99.90
45283;DHT22;31023;44.994;1.796;2022-08-19T10:38:09;21.50;99.90
45283;DHT22;31023;44.994;1.796;2022-08-19T10:40:35;21.80;99.90
45283;DHT22;31023;44.994;1.796;2022-08-19T10:43:00;22.10;99.90
45283;DHT22;31023;44.994;1.796;2022-08-19T10:45:26;22.10;99.90
45283;DHT22;31023;44.994;1.796;2022-08-19T10:47:54;22.40;99.90
45283;DHT22;31023;44.994;1.796;2022-08-19T10:50:20;22.70;99.90
45283;DHT22;31023;44.994;1.796;2022-08-19T10:53:05;22.80;99.90
45283;DHT22;31023;44.994;1.796;2022-08-19T10:55:31;23.00;99.90
45283;DHT22;31023;44.994;1.796;2022-08-19T10:58:16;22.90;99.90
45283;DHT22;31023;44.994;1.796;2022-08-19T11:00:42;23.40;99.90
45283;DHT22;31023;44.994;1.796;2022-08-19T11:03:08;23.40;99.90
45283;DHT22;31023;44.994;1.796;2022-08-19T11:05:34;23.00;99.90
45283;DHT22;31023;44.994;1.796;2022-08-19T11:07:59;22.50;99.90
45283;DHT22;31023;44.994;1.796;2022-08-19T11:10:25;22.10;99.90
45283;DHT22;31023;44.994;1.796;2022-08-19T11:12:50;21.80;99.90
45283;DHT22;31023;44.994;1.796;2022-08-19T11:15:19;21.60;99.90
45283;DHT22;31023;44.994;1.796;2022-08-19T11:17:45;21.40;99.90
45283;DHT22;31023;44.994;1.796;2022-08-19T11:20:11;21.30;99.90
45283;DHT22;31023;44.994;1.796;2022-08-19T11:22:37;21.30;99.90
45283;DHT22;31023;44.994;1.796;2022-08-19T11:25:03;21.30;99.90
45283;DHT22;31023;44.994;1.796;2022-08-19T11:27:29;21.20;99.90
45283;DHT22;31023;44.994;1.796;2022-08-19T11:29:55;21.40;99.90
45283;DHT22;31023;44.994;1.796;2022-08-19T11:32:21;21.50;99.90
45283;DHT22;31023;44.994;1.796;2022-08-19T11:34:46;21.50;99.90
45283;DHT22;31023;44.994;1.796;2022-08-19T11:37:12;21.40;99.90
45283;DHT22;31023;44.994;1.796;2022-08-19T11:39:37;21.20;99.90
45283;DHT22;31023;44.994;1.796;2022-08-19T11:42:04;21.20;99.90
45283;DHT22;31023;44.994;1.796;2022-08-19T11:47:47;21.10;99.90
45283;DHT22;31023;44.994;1.796;2022-08-19T11:50:13;21.40;99.90
45283;DHT22;31023;44.994;1.796;2022-08-19T11:52:38;21.70;99.90
45283;DHT22;31023;44.994;1.796;2022-08-19T11:55:04;21.90;99.90
45283;DHT22;31023;44.994;1.796;2022-08-19T11:57:30;22.50;99.90
45283;DHT22;31023;44.994;1.796;2022-08-19T11:59:56;23.30;99.90
45283;DHT22;31023;44.994;1.796;2022-08-19T12:02:22;23.80;99.90
45283;DHT22;31023;44.994;1.796;2022-08-19T12:04:48;23.60;99.90
45283;DHT22;31023;44.994;1.796;2022-08-19T12:07:14;23.30;99.90
45283;DHT22;31023;44.994;1.796;2022-08-19T12:09:40;23.60;99.90
45283;DHT22;31023;44.994;1.796;2022-08-19T12:12:05;23.90;99.90
45283;DHT22;31023;44.994;1.796;2022-08-19T12:14:31;24.30;99.90
45283;DHT22;31023;44.994;1.796;2022-08-19T12:16:57;24.60;99.90
45283;DHT22;31023;44.994;1.796;2022-08-19T12:19:23;24.40;99.90
45283;DHT22;31023;44.994;1.796;2022-08-19T12:21:50;24.70;99.90
45283;DHT22;31023;44.994;1.796;2022-08-19T12:24:16;25.10;99.90
45283;DHT22;31023;44.994;1.796;2022-08-19T12:26:48;24.70;99.90
45283;DHT22;31023;44.994;1.796;2022-08-19T12:29:13;24.90;99.90
45283;DHT22;31023;44.994;1.796;2022-08-19T12:31:40;24.90;99.90
45283;DHT22;31023;44.994;1.796;2022-08-19T12:34:05;24.70;99.90
45283;DHT22;31023;44.994;1.796;2022-08-19T12:36:31;24.90;99.90
45283;DHT22;31023;44.994;1.796;2022-08-19T12:38:57;25.00;99.90
45283;DHT22;31023;44.994;1.796;2022-08-19T12:41:23;24.40;99.90
45283;DHT22;31023;44.994;1.796;2022-08-19T12:43:49;24.20;99.90
45283;DHT22;31023;44.994;1.796;2022-08-19T12:46:15;24.10;99.90
45283;DHT22;31023;44.994;1.796;2022-08-19T12:48:40;24.00;99.90
45283;DHT22;31023;44.994;1.796;2022-08-19T12:51:11;24.20;99.90
45283;DHT22;31023;44.994;1.796;2022-08-19T12:53:37;24.10;99.90
45283;DHT22;31023;44.994;1.796;2022-08-19T12:56:03;24.00;99.90
45283;DHT22;31023;44.994;1.796;2022-08-19T12:58:29;23.90;99.90
45283;DHT22;31023;44.994;1.796;2022-08-19T13:00:54;24.00;99.90
45283;DHT22;31023;44.994;1.796;2022-08-19T13:03:20;24.40;99.90
45283;DHT22;31023;44.994;1.796;2022-08-19T13:05:47;24.50;99.90
45283;DHT22;31023;44.994;1.796;2022-08-19T13:08:14;24.30;99.90
45283;DHT22;31023;44.994;1.796;2022-08-19T13:10:40;24.70;99.90
45283;DHT22;31023;44.994;1.796;2022-08-19T13:13:07;24.80;99.90
45283;DHT22;31023;44.994;1.796;2022-08-19T13:15:33;25.10;99.90
45283;DHT22;31023;44.994;1.796;2022-08-19T13:17:59;25.10;99.90
45283;DHT22;31023;44.994;1.796;2022-08-19T13:20:25;25.40;99.90
45283;DHT22;31023;44.994;1.796;2022-08-19T13:22:51;25.60;99.90
45283;DHT22;31023;44.994;1.796;2022-08-19T13:25:16;25.60;99.90
45283;DHT22;31023;44.994;1.796;2022-08-19T13:27:44;25.60;99.90
45283;DHT22;31023;44.994;1.796;2022-08-19T13:30:10;25.30;99.90
45283;DHT22;31023;44.994;1.796;2022-08-19T13:32:55;25.30;99.90
45283;DHT22;31023;44.994;1.796;2022-08-19T13:35:58;24.90;99.90
45283;DHT22;31023;44.994;1.796;2022-08-19T13:38:26;24.60;99.90
45283;DHT22;31023;44.994;1.796;2022-08-19T13:40:52;24.40;99.90
45283;DHT22;31023;44.994;1.796;2022-08-19T13:43:18;23.90;99.90
45283;DHT22;31023;44.994;1.796;2022-08-19T13:45:45;24.00;99.90
45283;DHT22;31023;44.994;1.796;2022-08-19T13:48:10;23.50;99.90
45283;DHT22;31023;44.994;1.796;2022-08-19T13:50:40;23.30;99.90
45283;DHT22;31023;44.994;1.796;2022-08-19T13:53:07;22.90;99.90
45283;DHT22;31023;44.994;1.796;2022-08-19T13:55:33;23.00;99.90
45283;DHT22;31023;44.994;1.796;2022-08-19T13:57:59;23.30;99.90
45283;DHT22;31023;44.994;1.796;2022-08-19T14:00:28;23.20;99.90
45283;DHT22;31023;44.994;1.796;2022-08-19T14:02:54;23.00;99.90
45283;DHT22;31023;44.994;1.796;2022-08-19T14:05:20;23.00;99.90
45283;DHT22;31023;44.994;1.796;2022-08-19T14:07:47;22.80;99.90
45283;DHT22;31023;44.994;1.796;2022-08-19T14:10:14;22.80;99.90
45283;DHT22;31023;44.994;1.796;2022-08-19T14:12:39;23.10;99.90
45283;DHT22;31023;44.994;1.796;2022-08-19T14:15:06;23.20;99.90
45283;DHT22;31023;44.994;1.796;2022-08-19T14:17:32;23.20;99.90
45283;DHT22;31023;44.994;1.796;2022-08-19T14:20:01;23.40;99.90
45283;DHT22;31023;44.994;1.796;2022-08-19T14:22:32;23.60;99.90
45283;DHT22;31023;44.994;1.796;2022-08-19T14:24:58;23.70;99.90
45283;DHT22;31023;44.994;1.796;2022-08-19T14:27:23;23.70;99.90
45283;DHT22;31023;44.994;1.796;2022-08-19T14:29:50;23.60;99.90
45283;DHT22;31023;44.994;1.796;2022-08-19T14:32:16;23.50;99.90
45283;DHT22;31023;44.994;1.796;2022-08-19T14:34:41;23.40;99.90
45283;DHT22;31023;44.994;1.796;2022-08-19T14:37:07;23.60;99.90
45283;DHT22;31023;44.994;1.796;2022-08-19T14:39:34;23.80;99.90
45283;DHT22;31023;44.994;1.796;2022-08-19T14:42:00;23.80;99.90
45283;DHT22;31023;44.994;1.796;2022-08-19T14:44:26;23.70;99.90
45283;DHT22;31023;44.994;1.796;2022-08-19T14:46:51;23.60;99.90
45283;DHT22;31023;44.994;1.796;2022-08-19T14:49:18;23.40;99.90
45283;DHT22;31023;44.994;1.796;2022-08-19T14:51:44;23.60;99.90
45283;DHT22;31023;44.994;1.796;2022-08-19T14:54:12;23.90;99.90
45283;DHT22;31023;44.994;1.796;2022-08-19T14:56:37;24.00;99.90
45283;DHT22;31023;44.994;1.796;2022-08-19T14:59:05;24.20;99.90
45283;DHT22;31023;44.994;1.796;2022-08-19T15:01:31;24.10;99.90
45283;DHT22;31023;44.994;1.796;2022-08-19T15:03:57;24.20;99.10
45283;DHT22;31023;44.994;1.796;2022-08-19T15:06:23;24.00;99.30
45283;DHT22;31023;44.994;1.796;2022-08-19T15:08:49;24.00;99.60
45283;DHT22;31023;44.994;1.796;2022-08-19T15:11:16;24.20;99.90
45283;DHT22;31023;44.994;1.796;2022-08-19T15:13:43;24.30;99.60
45283;DHT22;31023;44.994;1.796;2022-08-19T15:16:09;24.30;99.40
45283;DHT22;31023;44.994;1.796;2022-08-19T15:18:35;24.30;99.60
45283;DHT22;31023;44.994;1.796;2022-08-19T15:21:01;24.40;99.90
45283;DHT22;31023;44.994;1.796;2022-08-19T15:23:26;24.40;99.90
45283;DHT22;31023;44.994;1.796;2022-08-19T15:25:52;24.30;99.90
45283;DHT22;31023;44.994;1.796;2022-08-19T15:28:23;24.10;99.90
45283;DHT22;31023;44.994;1.796;2022-08-19T15:30:49;23.80;99.90
45283;DHT22;31023;44.994;1.796;2022-08-19T15:33:15;23.70;99.90
45283;DHT22;31023;44.994;1.796;2022-08-19T15:35:42;23.60;99.90
45283;DHT22;31023;44.994;1.796;2022-08-19T15:38:08;23.50;99.90
45283;DHT22;31023;44.994;1.796;2022-08-19T15:40:34;23.50;99.90
45283;DHT22;31023;44.994;1.796;2022-08-19T15:43:00;23.40;99.90
45283;DHT22;31023;44.994;1.796;2022-08-19T15:45:25;23.40;99.90